Time;durP1;ratioP1;P1;durP2;ratioP2;P2;SDS_P1;SDS_P2;PMS_P1;PMS_P2;Temp;Humidity;BMP_temperature;BMP_pressure;BME280_temperature;BME280_humidity;BME280_pressure;Samples;Min_cycle;Max_cycle;Signal;HPM_P1;HPM_P2
2021/05/24 00:00:15;;;;;;;4.65;2.08;;;6.90;99.90;;;6.15;85.29;97441.06;5076239;28;20048;-72
2021/05/24 00:02:43;;;;;;;13.20;2.40;;;6.90;99.90;;;6.01;86.27;97444.84;5086167;28;20070;-72
2021/05/24 00:05:19;;;;;;;6.63;2.17;;;6.80;99.90;;;6.10;85.74;97440.34;5083927;28;20056;-72
2021/05/24 00:07:47;;;;;;;3.78;1.63;;;6.80;99.90;;;6.12;85.10;97441.16;5083402;28;20051;-72
2021/05/24 00:10:23;;;;;;;4.53;2.50;;;6.80;99.90;;;6.07;85.59;97442.13;5083558;28;20492;-72
2021/05/24 00:12:56;;;;;;;5.85;2.17;;;6.80;99.90;;;5.94;86.22;97430.44;5074544;28;20465;-72
2021/05/24 00:15:38;;;;;;;5.13;1.48;;;6.70;99.90;;;6.00;85.59;97427.72;5079907;28;20113;-73
2021/05/24 00:18:06;;;;;;;5.93;1.90;;;6.70;99.90;;;5.83;86.82;97427.28;5078530;28;20040;-72
2021/05/24 00:20:54;;;;;;;10.60;2.15;;;6.80;99.90;;;5.66;87.68;97420.00;5077562;28;20048;-72
2021/05/24 00:23:22;;;;;;;5.63;1.77;;;6.80;99.90;;;5.66;87.29;97417.41;5069932;28;20497;-72
2021/05/24 00:25:50;;;;;;;8.20;2.00;;;6.70;99.90;;;5.43;88.61;97415.41;5072287;28;20113;-72
2021/05/24 00:28:18;;;;;;;7.65;1.98;;;6.60;99.90;;;5.65;87.01;97419.13;5086647;28;20040;-72
2021/05/24 00:30:47;;;;;;;6.70;1.65;;;6.50;99.90;;;5.62;87.44;97421.78;5086186;28;20059;-72
2021/05/24 00:33:15;;;;;;;6.68;2.20;;;6.40;99.90;;;5.60;87.37;97417.56;5069347;28;20040;-72
2021/05/24 00:35:42;;;;;;;5.72;1.75;;;6.40;99.90;;;5.46;88.00;97420.47;5077101;28;20028;-72
2021/05/24 00:38:11;;;;;;;7.00;1.60;;;6.40;99.90;;;5.58;87.41;97409.88;5086740;28;20106;-72
2021/05/24 00:40:39;;;;;;;8.32;1.50;;;6.40;99.90;;;5.64;86.59;97414.03;5071160;28;20040;-72
2021/05/24 00:43:08;;;;;;;7.68;1.50;;;6.40;99.90;;;5.59;86.31;97414.16;5086453;28;20040;-72
2021/05/24 00:45:36;;;;;;;4.35;1.80;;;6.30;99.90;;;5.31;88.86;97415.69;5082843;28;20135;-72
2021/05/24 00:48:04;;;;;;;7.78;2.28;;;6.30;99.90;;;5.37;88.60;97416.41;5087760;28;20036;-72
2021/05/24 00:50:33;;;;;;;6.32;2.30;;;6.20;99.90;;;5.54;87.14;97415.13;5074561;28;20071;-72
2021/05/24 00:53:00;;;;;;;5.78;1.10;;;6.20;99.90;;;5.69;86.02;97413.91;5074408;28;20044;-72
2021/05/24 00:55:27;;;;;;;4.80;1.35;;;6.30;99.90;;;5.73;85.54;97412.97;5077131;28;20405;-72
2021/05/24 00:57:55;;;;;;;3.70;1.30;;;6.30;99.90;;;5.70;85.26;97402.72;5083511;28;20101;-72
2021/05/24 01:00:40;;;;;;;7.13;1.77;;;6.30;99.90;;;5.27;87.90;97406.34;5079097;28;20062;-72
2021/05/24 01:03:11;;;;;;;7.35;2.03;;;6.30;99.90;;;5.27;87.91;97408.94;5069644;28;20040;-72
2021/05/24 01:05:39;;;;;;;3.50;1.48;;;6.30;99.90;;;5.23;88.32;97397.88;5073647;28;20040;-72
2021/05/24 01:08:07;;;;;;;7.80;1.80;;;6.20;99.90;;;5.10;89.16;97397.31;5080066;28;20060;-72
2021/05/24 01:10:35;;;;;;;2.72;1.20;;;6.20;99.90;;;5.07;89.40;97397.41;5076304;28;20048;-72
2021/05/24 01:13:06;;;;;;;7.05;2.10;;;6.10;99.90;;;5.21;88.58;97397.06;5071281;28;20041;-72
2021/05/24 01:15:34;;;;;;;6.63;1.70;;;6.00;99.90;;;5.28;87.75;97395.19;5079892;28;20040;-72
2021/05/24 01:18:02;;;;;;;5.68;2.10;;;6.10;99.90;;;5.17;87.92;97386.00;5084919;28;20158;-72
2021/05/24 01:20:30;;;;;;;5.60;1.45;;;6.00;99.90;;;5.32;86.24;97381.38;5083034;28;20081;-72
2021/05/24 01:23:08;;;;;;;5.68;1.48;;;6.00;99.90;;;5.26;86.30;97378.94;5079825;28;20530;-72
2021/05/24 01:25:45;;;;;;;8.00;1.83;;;6.00;99.90;;;5.06;88.05;97374.28;5078193;28;20036;-72
2021/05/24 01:28:15;;;;;;;3.83;1.48;;;6.00;99.90;;;5.18;87.32;97372.25;5083733;28;20033;-72
2021/05/24 01:30:43;;;;;;;6.20;1.50;;;5.90;99.90;;;4.95;88.40;97369.38;5069160;28;20078;-72
2021/05/24 01:33:11;;;;;;;3.47;1.60;;;5.90;99.90;;;5.17;87.05;97359.44;5071685;28;20044;-72
2021/05/24 01:35:40;;;;;;;5.82;2.00;;;5.90;99.90;;;5.11;86.80;97357.00;5078755;28;20055;-72
2021/05/24 01:38:09;;;;;;;8.00;2.00;;;5.80;99.90;;;5.12;86.78;97354.41;5084511;28;20082;-72
2021/05/24 01:40:38;;;;;;;6.95;2.40;;;5.80;99.90;;;5.15;86.05;97349.16;5075810;28;20313;-72
2021/05/24 01:43:05;;;;;;;7.80;2.00;;;5.90;99.90;;;5.17;85.87;97344.81;5080758;28;20402;-72
2021/05/24 01:45:33;;;;;;;4.78;2.03;;;5.90;99.90;;;5.12;85.96;97343.25;5076019;28;20087;-72
2021/05/24 01:48:01;;;;;;;6.25;2.20;;;5.90;99.90;;;4.96;87.32;97342.78;5081441;28;20056;-72
2021/05/24 01:50:28;;;;;;;4.60;1.88;;;5.80;99.90;;;4.81;88.09;97333.69;5077249;28;20040;-72
2021/05/24 01:52:55;;;;;;;9.05;2.20;;;5.80;99.90;;;4.96;86.99;97329.94;5077512;28;20091;-72
2021/05/24 01:55:23;;;;;;;4.10;1.70;;;5.70;99.90;;;4.85;87.10;97330.19;5080807;28;20097;-72
2021/05/24 01:57:52;;;;;;;4.35;1.95;;;5.60;99.90;;;4.98;86.52;97330.75;5063995;28;20043;-72
2021/05/24 02:00:22;;;;;;;6.53;1.98;;;5.60;99.90;;;4.97;86.76;97335.03;5073996;28;20365;-72
2021/05/24 02:02:53;;;;;;;6.13;2.03;;;5.60;99.90;;;4.88;86.03;97324.13;5069174;28;20040;-72
2021/05/24 02:05:22;;;;;;;5.07;2.10;;;5.50;99.90;;;4.69;87.94;97324.53;5078828;28;20098;-72
2021/05/24 02:07:50;;;;;;;5.30;2.22;;;5.50;99.90;;;4.54;88.48;97323.19;5083961;28;20103;-72
2021/05/24 02:10:23;;;;;;;4.28;1.70;;;5.50;99.90;;;4.67;87.95;97325.47;5073807;28;20033;-72
2021/05/24 02:12:50;;;;;;;4.10;1.42;;;5.40;99.90;;;4.79;87.50;97320.91;5062565;28;20101;-72
2021/05/24 02:15:21;;;;;;;4.20;1.60;;;5.40;99.90;;;4.68;87.66;97316.88;5086695;28;20081;-72
2021/05/24 02:17:48;;;;;;;6.28;1.63;;;5.40;99.90;;;4.76;86.65;97317.53;5086490;28;20508;-72
2021/05/24 02:20:19;;;;;;;5.07;1.50;;;5.40;99.90;;;4.81;86.43;97314.00;5078693;28;20037;-72
2021/05/24 02:22:46;;;;;;;5.13;1.40;;;5.50;99.90;;;4.57;87.96;97312.00;5079370;28;20047;-72
2021/05/24 02:25:13;;;;;;;5.80;1.60;;;5.50;99.90;;;4.56;87.57;97308.59;5069764;28;20041;-72
2021/05/24 02:27:41;;;;;;;4.38;1.70;;;5.40;99.90;;;4.52;88.29;97299.25;5074372;28;20559;-72
2021/05/24 02:30:11;;;;;;;4.00;1.58;;;5.30;99.90;;;4.49;87.71;97304.44;5077064;28;20039;-72
2021/05/24 02:32:38;;;;;;;6.25;2.22;;;5.30;99.90;;;4.10;89.78;97303.59;5081728;28;20037;-72
2021/05/24 02:35:08;;;;;;;5.20;1.52;;;5.20;99.90;;;4.02;90.51;97296.06;5093935;28;20044;-72
2021/05/24 02:37:35;;;;;;;7.30;1.80;;;5.20;99.90;;;4.26;88.96;97292.09;5078491;28;20044;-73
2021/05/24 02:40:06;;;;;;;10.18;2.42;;;5.10;99.90;;;4.09;89.64;97301.91;5080457;28;20048;-72
2021/05/24 02:42:35;;;;;;;4.97;2.03;;;5.00;99.90;;;4.20;88.66;97302.53;5075867;28;20068;-72
2021/05/24 02:45:06;;;;;;;4.25;1.98;;;5.00;99.90;;;4.30;87.90;97295.47;5081055;28;20044;-72
2021/05/24 02:47:33;;;;;;;11.13;2.00;;;5.10;99.90;;;4.43;87.88;97298.63;5088148;28;20064;-72
2021/05/24 02:50:07;;;;;;;5.85;1.90;;;5.10;99.90;;;4.34;87.97;97304.81;5075971;28;20056;-72
2021/05/24 02:52:35;;;;;;;5.57;1.90;;;5.00;99.90;;;4.18;88.81;97296.59;5087599;28;20085;-72
2021/05/24 02:55:04;;;;;;;3.78;1.52;;;5.10;99.90;;;4.42;87.66;97296.91;5072331;28;20102;-72
2021/05/24 02:57:32;;;;;;;3.83;1.60;;;5.10;99.90;;;4.47;86.74;97293.38;5073753;28;20044;-72
2021/05/24 03:00:00;;;;;;;4.00;1.50;;;5.10;99.90;;;4.42;86.94;97290.03;5073955;28;20079;-72
2021/05/24 03:02:29;;;;;;;8.25;2.40;;;5.20;99.90;;;4.41;87.05;97285.78;5080072;28;20086;-72
2021/05/24 03:04:56;;;;;;;6.43;2.42;;;5.20;99.90;;;4.18;88.13;97287.16;5078224;28;20407;-72
2021/05/24 03:07:23;;;;;;;8.93;3.20;;;5.10;99.90;;;4.09;88.64;97283.94;5087738;28;20098;-72
2021/05/24 03:09:50;;;;;;;6.43;2.67;;;5.00;99.90;;;4.27;87.68;97282.69;5078784;28;20051;-72
2021/05/24 03:12:17;;;;;;;4.93;2.22;;;5.00;99.90;;;4.22;87.28;97289.63;5075545;28;20059;-72
2021/05/24 03:14:44;;;;;;;4.65;2.10;;;5.00;99.90;;;4.35;86.48;97284.19;5082815;28;20128;-72
2021/05/24 03:17:11;;;;;;;6.20;2.22;;;5.00;99.90;;;4.37;86.14;97281.59;5070503;28;20041;-72
2021/05/24 03:19:38;;;;;;;4.72;1.88;;;5.00;99.90;;;4.39;85.33;97280.69;5069966;28;20538;-72
2021/05/24 03:22:05;;;;;;;6.95;2.45;;;5.00;99.90;;;4.24;85.44;97282.75;5069724;28;20562;-72
2021/05/24 03:24:32;;;;;;;10.70;3.47;;;5.10;99.90;;;4.25;86.15;97285.28;5079764;28;20040;-72
2021/05/24 03:26:59;;;;;;;13.00;5.43;;;5.10;99.90;;;4.07;87.44;97285.69;5085539;28;20113;-72
2021/05/24 03:29:29;;;;;;;14.57;5.78;;;5.00;99.90;;;4.09;87.75;97281.38;5093966;28;20043;-72
2021/05/24 03:31:56;;;;;;;16.38;4.82;;;4.90;99.90;;;3.79;90.04;97286.25;5074431;28;20157;-72
2021/05/24 03:34:23;;;;;;;8.90;3.53;;;5.00;99.90;;;3.81;90.58;97281.94;5079907;28;20086;-72
2021/05/24 03:36:51;;;;;;;6.60;3.05;;;4.90;99.90;;;3.85;89.64;97280.97;5083875;28;20048;-72
2021/05/24 03:39:20;;;;;;;8.70;3.25;;;4.90;99.90;;;3.63;90.54;97274.63;5079972;28;20086;-72
2021/05/24 03:41:47;;;;;;;5.55;2.10;;;4.80;99.90;;;3.78;89.48;97266.59;5085217;28;20048;-72
2021/05/24 03:44:14;;;;;;;8.27;3.25;;;4.80;99.90;;;3.50;91.48;97266.31;5087493;28;20051;-72
2021/05/24 03:46:42;;;;;;;9.77;3.63;;;4.70;99.90;;;3.55;90.83;97264.50;5074031;28;20058;-72
2021/05/24 03:49:09;;;;;;;7.10;2.92;;;4.70;99.90;;;3.44;91.37;97271.53;5073719;28;20047;-72
2021/05/24 03:51:36;;;;;;;8.13;2.85;;;4.60;99.90;;;3.50;91.23;97274.84;5080235;28;20047;-72
2021/05/24 03:54:03;;;;;;;4.30;2.15;;;4.50;99.90;;;3.67;89.97;97264.25;5085683;28;20083;-72
2021/05/24 03:56:30;;;;;;;4.03;1.70;;;4.50;99.90;;;3.82;88.94;97264.81;5072883;28;20496;-72
2021/05/24 03:58:57;;;;;;;6.03;1.73;;;4.60;99.90;;;3.68;90.17;97280.50;5075842;28;20090;-72
2021/05/24 04:01:24;;;;;;;3.45;1.88;;;4.60;99.90;;;3.61;91.39;97276.38;5072686;28;20048;-72
2021/05/24 04:03:53;;;;;;;5.90;1.88;;;4.60;99.90;;;3.52;91.17;97280.78;5080003;28;20051;-72
2021/05/24 04:06:21;;;;;;;9.85;2.63;;;4.60;99.90;;;3.59;91.11;97273.00;5080406;28;20069;-72
2021/05/24 04:08:48;;;;;;;5.82;2.85;;;4.70;99.90;;;3.68;90.71;97263.38;5071843;28;20059;-72
2021/05/24 04:11:16;;;;;;;4.85;2.00;;;4.60;99.90;;;3.68;90.07;97262.53;5073858;28;20131;-72
2021/05/24 04:13:49;;;;;;;5.50;2.17;;;4.60;99.90;;;3.78;89.41;97261.47;5083021;28;20496;-72
2021/05/24 04:16:16;;;;;;;4.28;1.88;;;4.70;99.90;;;3.89;88.63;97256.94;5078414;28;20457;-72
2021/05/24 04:18:48;;;;;;;4.85;2.08;;;4.60;99.90;;;3.78;89.60;97262.28;5078629;28;20048;-72
2021/05/24 04:21:16;;;;;;;4.03;1.70;;;4.60;99.90;;;3.77;89.61;97257.22;5077378;28;20093;-73
2021/05/24 04:23:44;;;;;;;5.35;1.70;;;4.70;99.90;;;3.89;89.56;97249.25;5080817;28;20119;-72
2021/05/24 04:26:14;;;;;;;5.15;1.60;;;4.80;99.90;;;3.80;89.84;97264.84;5076491;28;20526;-72
2021/05/24 04:28:41;;;;;;;4.72;1.30;;;4.90;99.90;;;4.05;88.63;97264.31;5083708;28;20033;-72
2021/05/24 04:31:08;;;;;;;2.97;1.27;;;5.00;99.90;;;4.16;88.05;97270.91;5074263;28;20041;-73
2021/05/24 04:33:35;;;;;;;7.68;1.60;;;5.00;99.90;;;4.09;88.36;97269.38;5076079;28;20094;-72
2021/05/24 04:36:03;;;;;;;4.47;1.40;;;4.90;99.90;;;4.28;87.10;97266.38;5079474;28;20040;-72
2021/05/24 04:38:30;;;;;;;3.55;1.15;;;4.90;99.90;;;4.30;86.97;97262.91;5070945;28;20413;-73
2021/05/24 04:40:57;;;;;;;4.30;1.90;;;5.10;99.90;;;4.32;87.56;97261.13;5079045;28;20151;-72
2021/05/24 04:43:28;;;;;;;6.05;1.83;;;5.20;99.90;;;4.27;87.50;97257.00;5069543;28;20180;-73
2021/05/24 04:45:56;;;;;;;4.10;1.98;;;5.20;99.90;;;4.06;89.33;97253.16;5084354;28;20412;-73
2021/05/24 04:48:23;;;;;;;4.93;1.48;;;5.30;99.90;;;4.36;88.06;97251.66;5073586;28;20073;-73
2021/05/24 04:50:50;;;;;;;7.10;1.90;;;5.30;99.90;;;4.16;88.20;97252.09;5075165;28;20545;-72
2021/05/24 04:53:18;;;;;;;6.57;1.80;;;5.30;99.90;;;4.31;87.84;97249.19;5084521;28;20056;-72
2021/05/24 04:55:46;;;;;;;4.85;1.73;;;5.30;99.90;;;4.45;87.34;97250.56;5072413;28;20110;-72
2021/05/24 04:58:13;;;;;;;8.70;1.52;;;5.40;99.90;;;4.63;86.76;97244.16;5075445;28;20036;-72
2021/05/24 05:00:41;;;;;;;5.70;1.55;;;5.40;99.90;;;4.63;87.09;97244.16;5085212;28;20044;-73
2021/05/24 05:03:08;;;;;;;6.47;1.27;;;5.50;99.90;;;4.87;86.48;97242.72;5070622;28;20432;-72
2021/05/24 05:05:35;;;;;;;4.45;1.10;;;5.70;99.90;;;5.01;85.76;97236.31;5086210;28;20452;-72
2021/05/24 05:08:02;;;;;;;4.07;1.17;;;5.70;99.90;;;5.06;85.47;97236.19;5081215;28;20105;-73
2021/05/24 05:10:30;;;;;;;5.88;1.15;;;5.90;99.90;;;5.17;84.97;97233.34;5069510;28;20040;-72
2021/05/24 05:12:57;;;;;;;2.67;1.20;;;6.00;99.90;;;5.06;85.83;97237.94;5082680;28;20451;-73
2021/05/24 05:15:24;;;;;;;4.95;1.27;;;6.10;99.90;;;5.07;86.36;97250.75;5082554;28;20036;-73
2021/05/24 05:17:51;;;;;;;4.63;1.58;;;6.20;99.90;;;5.08;86.61;97254.19;5086356;28;20471;-73
2021/05/24 05:20:18;;;;;;;4.15;1.75;;;6.20;99.90;;;5.13;87.13;97250.63;5073372;28;20048;-73
2021/05/24 05:22:45;;;;;;;4.00;1.25;;;6.40;99.90;;;5.22;87.18;97247.81;5067826;28;20102;-73
2021/05/24 05:25:12;;;;;;;5.03;1.33;;;6.60;99.90;;;5.36;86.98;97244.84;5075662;28;20109;-72
2021/05/24 05:27:39;;;;;;;3.58;1.25;;;6.70;99.90;;;5.48;86.40;97230.81;5078160;28;20504;-73
2021/05/24 05:30:07;;;;;;;2.20;1.10;;;6.90;99.90;;;5.69;85.51;97220.78;5075943;28;20037;-73
2021/05/24 05:32:34;;;;;;;5.72;1.27;;;7.00;99.90;;;5.72;85.66;97218.94;5072785;28;20090;-72
2021/05/24 05:35:03;;;;;;;5.50;1.70;;;7.20;99.90;;;6.06;84.81;97220.56;5073104;28;20041;-73
2021/05/24 05:37:31;;;;;;;7.47;1.33;;;7.30;99.90;;;6.33;84.10;97211.13;5081884;28;20044;-73
2021/05/24 05:39:59;;;;;;;5.53;1.90;;;7.50;99.90;;;6.63;83.11;97211.03;5076824;28;20055;-73
2021/05/24 05:42:26;;;;;;;4.25;1.52;;;7.70;99.90;;;6.87;82.34;97206.81;5067225;28;20048;-72
2021/05/24 05:44:53;;;;;;;4.85;1.60;;;7.80;99.90;;;7.07;80.88;97208.69;5077720;28;20067;-72
2021/05/24 05:47:23;;;;;;;3.45;1.40;;;8.00;99.90;;;7.18;80.96;97216.91;5077807;28;20369;-72
2021/05/24 05:49:50;;;;;;;4.50;1.60;;;8.10;99.90;;;7.24;79.95;97210.72;5077547;28;20558;-72
2021/05/24 05:52:18;;;;;;;5.15;1.83;;;8.30;99.90;;;7.57;79.93;97218.13;5086031;28;20109;-72
2021/05/24 05:54:46;;;;;;;4.05;1.30;;;8.50;99.90;;;7.80;78.51;97217.28;5072552;28;20040;-72
2021/05/24 05:57:14;;;;;;;12.57;2.65;;;8.80;99.90;;;7.86;77.93;97211.91;5081708;28;20133;-72
2021/05/24 05:59:41;;;;;;;5.60;2.72;;;9.00;99.90;;;7.99;77.66;97213.13;5073023;28;20048;-72
2021/05/24 06:02:09;;;;;;;7.35;2.30;;;9.10;99.90;;;8.05;76.34;97207.72;5079372;28;20045;-74
2021/05/24 06:04:36;;;;;;;11.50;3.95;;;9.30;99.90;;;8.36;77.02;97203.94;5080571;28;20044;-72
2021/05/24 06:07:03;;;;;;;9.35;2.88;;;9.50;99.90;;;8.43;75.20;97200.22;5075249;28;20054;-72
2021/05/24 06:09:30;;;;;;;9.95;2.55;;;9.70;99.90;;;8.78;74.65;97197.94;5081231;28;20051;-72
2021/05/24 06:11:57;;;;;;;5.40;1.83;;;9.90;99.90;;;8.98;74.54;97212.66;5080209;28;20108;-72
2021/05/24 06:14:24;;;;;;;2.53;0.80;;;10.10;99.90;;;9.25;71.22;97183.91;5087701;28;20407;-72
2021/05/24 06:16:51;;;;;;;4.35;0.90;;;10.30;99.90;;;9.40;72.37;97198.78;5073202;28;20052;-72
2021/05/24 06:19:19;;;;;;;3.63;0.68;;;10.50;99.90;;;9.76;72.21;97187.66;5078366;28;20081;-72
2021/05/24 06:21:46;;;;;;;5.63;0.80;;;10.70;99.90;;;9.94;69.29;97186.81;5077065;28;20487;-72
2021/05/24 06:24:13;;;;;;;4.93;0.70;;;11.00;99.90;;;10.07;68.41;97189.69;5090941;28;20063;-74
2021/05/24 06:26:40;;;;;;;4.65;0.70;;;11.00;99.90;;;10.14;67.55;97187.66;5081599;28;20392;-73
2021/05/24 06:29:07;;;;;;;3.15;0.70;;;11.10;99.90;;;10.30;67.56;97188.63;5071986;28;20048;-72
2021/05/24 06:31:34;;;;;;;2.88;0.73;;;11.40;99.90;;;10.49;69.21;97182.56;5080172;28;20102;-72
2021/05/24 06:34:01;;;;;;;2.97;0.82;;;11.60;99.90;;;10.57;66.02;97180.44;5075484;28;20049;-72
2021/05/24 06:36:28;;;;;;;2.60;0.73;;;11.70;99.90;;;10.54;64.76;97188.38;5080663;28;20052;-72
2021/05/24 06:38:56;;;;;;;3.42;0.70;;;11.90;99.90;;;10.67;66.21;97187.72;5073199;28;20048;-73
2021/05/24 06:41:23;;;;;;;6.40;0.75;;;11.90;99.90;;;10.73;66.96;97173.56;5071628;28;20418;-72
2021/05/24 06:43:50;;;;;;;2.95;0.60;;;12.00;99.90;;;11.08;63.41;97169.22;5075568;28;20064;-73
2021/05/24 06:46:17;;;;;;;3.70;0.60;;;12.10;99.90;;;11.11;63.72;97157.84;5074216;28;20048;-72
2021/05/24 06:48:44;;;;;;;2.65;0.70;;;12.10;99.90;;;11.18;64.22;97166.16;5077625;28;20538;-72
2021/05/24 06:51:11;;;;;;;2.55;0.68;;;12.20;99.90;;;11.20;63.07;97179.88;5079959;28;20079;-74
2021/05/24 06:53:38;;;;;;;2.80;0.98;;;12.20;99.90;;;11.50;65.17;97167.91;5084922;28;20054;-73
2021/05/24 06:56:05;;;;;;;5.18;0.80;;;12.30;99.90;;;11.63;62.37;97165.50;5106080;28;20511;-73
2021/05/24 06:58:32;;;;;;;3.67;0.82;;;12.50;99.90;;;11.52;62.45;97163.47;5087066;28;20119;-72
2021/05/24 07:01:00;;;;;;;1.80;0.60;;;12.70;99.90;;;11.49;63.00;97167.97;5089453;28;20048;-72
2021/05/24 07:03:26;;;;;;;4.63;0.60;;;12.80;99.90;;;11.73;61.96;97168.44;5077963;28;20044;-72
2021/05/24 07:05:53;;;;;;;2.08;0.50;;;12.90;99.90;;;11.98;63.64;97170.56;5077121;28;20048;-72
2021/05/24 07:08:20;;;;;;;2.45;0.70;;;13.00;99.90;;;12.13;61.98;97166.28;5071710;28;20055;-72
2021/05/24 07:10:47;;;;;;;2.45;0.77;;;13.20;99.90;;;11.80;60.90;97169.78;5071155;28;20036;-72
2021/05/24 07:13:15;;;;;;;5.90;0.60;;;13.30;99.90;;;11.93;60.85;97168.22;5070417;28;20040;-72
2021/05/24 07:15:43;;;;;;;2.72;0.65;;;13.30;99.90;;;12.21;60.93;97171.91;5070456;28;20139;-72
2021/05/24 07:18:10;;;;;;;4.55;0.60;;;13.30;99.90;;;12.33;61.13;97171.22;5070674;28;20056;-72
2021/05/24 07:20:37;;;;;;;4.82;0.85;;;13.50;99.90;;;12.27;59.60;97175.91;5085012;28;20126;-72
2021/05/24 07:23:04;;;;;;;2.58;0.57;;;13.70;99.90;;;12.23;60.05;97164.84;5087030;28;20040;-72
2021/05/24 07:25:31;;;;;;;4.32;1.27;;;13.80;99.90;;;12.74;59.03;97164.56;5087346;28;20048;-72
2021/05/24 07:27:58;;;;;;;1.98;0.60;;;14.00;99.90;;;13.06;58.71;97160.09;5082260;28;20094;-72
2021/05/24 07:30:25;;;;;;;4.72;0.63;;;14.20;99.90;;;13.42;61.12;97158.00;5072873;28;20157;-72
2021/05/24 07:32:52;;;;;;;2.33;0.60;;;14.50;99.90;;;13.16;58.25;97165.59;5082300;28;20037;-72
2021/05/24 07:35:19;;;;;;;1.50;0.50;;;14.60;99.90;;;13.33;56.80;97168.06;5088997;28;20242;-72
2021/05/24 07:37:46;;;;;;;3.90;0.80;;;14.60;99.90;;;14.40;58.05;97147.47;5083419;28;20048;-73
2021/05/24 07:40:13;;;;;;;2.83;0.50;;;14.90;99.90;;;14.02;57.28;97155.13;5071264;28;20404;-73
2021/05/24 07:42:41;;;;;;;2.03;0.70;;;15.20;99.90;;;14.30;55.83;97159.44;5087184;28;20451;-72
2021/05/24 07:45:10;;;;;;;4.10;0.60;;;15.40;99.90;;;14.50;56.52;97157.31;5078614;28;20056;-72
2021/05/24 07:47:37;;;;;;;1.48;0.50;;;15.70;99.90;;;14.75;56.39;97165.22;5072112;28;20036;-73
2021/05/24 07:50:06;;;;;;;7.82;0.50;;;15.90;99.90;;;14.68;55.47;97157.91;5076743;28;20109;-73
2021/05/24 07:52:33;;;;;;;2.55;0.50;;;16.10;99.90;;;14.68;55.03;97157.91;5078065;28;20097;-73
2021/05/24 07:55:03;;;;;;;3.03;0.52;;;16.10;99.90;;;15.15;54.27;97156.53;5070867;28;20048;-73
2021/05/24 07:57:31;;;;;;;2.35;0.60;;;16.20;99.90;;;15.35;53.79;97158.63;5080238;28;20146;-73
2021/05/24 07:59:59;;;;;;;1.17;0.40;;;16.20;99.90;;;15.46;54.04;97152.63;5075317;28;20075;-71
2021/05/24 08:02:26;;;;;;;1.80;0.50;;;16.60;99.90;;;14.90;52.75;97154.72;5084535;28;20040;-73
2021/05/24 08:04:53;;;;;;;3.45;0.70;;;16.50;99.90;;;14.85;52.36;97155.03;5089521;28;20045;-71
2021/05/24 08:07:20;;;;;;;2.65;0.40;;;16.60;99.90;;;14.70;50.40;97151.66;5079389;28;20044;-71
2021/05/24 08:09:48;;;;;;;2.75;0.50;;;16.40;99.90;;;14.34;50.51;97155.69;5075276;28;20055;-72
2021/05/24 08:12:15;;;;;;;4.15;0.60;;;16.30;99.90;;;14.76;50.73;97160.88;5075685;28;20066;-72
2021/05/24 08:14:42;;;;;;;2.30;0.55;;;16.50;99.90;;;14.73;51.26;97155.81;5076861;28;20036;-72
2021/05/24 08:17:09;;;;;;;3.47;0.50;;;16.70;99.90;;;15.60;52.07;97146.44;5079495;28;20135;-72
2021/05/24 08:19:37;;;;;;;2.28;0.50;;;16.90;99.90;;;15.59;49.01;97155.25;5087340;28;20048;-72
2021/05/24 08:22:04;;;;;;;3.42;0.50;;;17.20;99.90;;;15.56;48.59;97137.16;5086892;28;20097;-72
2021/05/24 08:24:32;;;;;;;3.53;0.57;;;16.90;99.90;;;14.94;50.17;97140.50;5081917;28;20131;-72
2021/05/24 08:26:59;;;;;;;1.98;0.30;;;16.70;99.90;;;14.78;47.07;97135.44;5076732;28;20047;-72
2021/05/24 08:29:26;;;;;;;2.20;0.60;;;16.30;99.90;;;14.19;48.63;97139.25;5096460;28;20440;-72
2021/05/24 08:31:53;;;;;;;2.92;0.65;;;16.00;99.90;;;14.93;49.06;97136.22;5086608;28;20048;-72
2021/05/24 08:34:20;;;;;;;1.98;0.50;;;16.00;99.90;;;15.44;45.77;97123.97;5086810;28;20454;-73
2021/05/24 08:36:47;;;;;;;3.75;0.40;;;16.10;99.90;;;15.66;47.32;97110.22;5083753;28;20064;-72
2021/05/24 08:39:14;;;;;;;4.05;0.43;;;16.10;99.90;;;15.57;46.84;97113.47;5085894;28;20044;-72
2021/05/24 08:41:42;;;;;;;1.92;0.47;;;16.10;99.90;;;15.37;48.65;97106.19;5081368;28;20062;-72
2021/05/24 08:44:09;;;;;;;1.63;0.40;;;16.00;99.90;;;15.43;48.10;97106.59;5098042;28;20093;-72
2021/05/24 08:46:38;;;;;;;3.17;0.50;;;16.00;99.90;;;15.16;48.85;97101.50;5082532;28;20049;-72
2021/05/24 08:49:06;;;;;;;0.95;0.40;;;16.10;99.90;;;15.42;48.96;97099.72;5069577;28;20043;-72
2021/05/24 08:51:33;;;;;;;2.72;0.47;;;16.20;99.90;;;15.35;50.61;97095.84;5093101;28;20143;-71
2021/05/24 08:54:02;;;;;;;1.65;0.40;;;16.30;99.90;;;15.76;47.98;97080.81;5075254;28;20040;-72
2021/05/24 08:56:29;;;;;;;3.05;0.63;;;16.40;99.90;;;15.33;47.02;97097.75;5077438;28;20036;-71
2021/05/24 08:59:02;;;;;;;1.80;0.50;;;16.50;99.90;;;15.55;48.58;97080.53;5081456;28;20052;-72
2021/05/24 09:01:30;;;;;;;1.90;0.50;;;16.70;99.90;;;15.46;47.52;97082.00;5081752;28;20115;-72
2021/05/24 09:04:05;;;;;;;2.45;0.77;;;16.70;99.90;;;15.57;47.18;97079.47;5079048;28;20503;-73
2021/05/24 09:06:47;;;;;;;1.95;0.60;;;16.70;99.90;;;15.90;48.27;97075.44;5076340;28;20048;-73
2021/05/24 09:09:17;;;;;;;3.88;0.50;;;16.90;99.90;;;16.29;46.23;97068.25;5077266;28;20522;-73
2021/05/24 09:11:46;;;;;;;4.65;0.50;;;17.00;99.90;;;16.34;44.24;97070.53;5084322;28;20043;-72
2021/05/24 09:14:20;;;;;;;3.30;0.73;;;17.20;99.90;;;16.07;45.56;97061.94;5077308;28;20454;-74
2021/05/24 09:17:02;;;;;;;3.65;0.40;;;17.30;99.90;;;16.49;44.72;97057.13;5065647;28;20048;-72
2021/05/24 09:19:36;;;;;;;2.67;0.40;;;17.50;99.90;;;16.35;44.81;97062.53;5095693;28;20048;-72
2021/05/24 09:22:08;;;;;;;3.95;0.50;;;17.90;99.90;;;16.44;44.61;97050.53;5068464;28;20040;-73
2021/05/24 09:24:37;;;;;;;;;;;18.10;99.90;;;15.86;43.72;97053.88;5068743;28;20531;-73
2021/05/24 09:27:22;;;;;;;2.80;0.55;;;18.10;99.90;;;15.52;45.16;97068.50;5072336;28;20489;-73
2021/05/24 09:29:52;;;;;;;5.30;0.73;;;18.10;99.90;;;16.00;43.77;97059.91;5049844;28;20402;-73
2021/05/24 09:32:26;;;;;;;2.42;0.32;;;18.10;99.90;;;16.66;43.09;97047.16;5068329;28;20060;-73
2021/05/24 09:34:59;;;;;;;3.22;0.50;;;18.30;99.90;;;16.29;42.81;97057.78;5069918;28;20155;-72
2021/05/24 09:37:37;;;;;;;2.90;0.60;;;18.60;99.90;;;16.91;42.10;97044.34;5073093;28;20048;-73
2021/05/24 09:40:22;;;;;;;2.72;0.50;;;18.80;99.90;;;16.48;43.76;97044.97;5047028;28;20075;-73
2021/05/24 09:42:54;;;;;;;3.50;0.80;;;18.50;99.90;;;17.56;41.55;97053.31;5075490;28;20067;-74
2021/05/24 09:45:21;;;;;;;2.25;0.40;;;19.00;99.90;;;18.49;42.25;97036.16;5077558;28;20116;-72
2021/05/24 09:47:49;;;;;;;2.13;0.50;;;19.70;99.90;;;17.67;42.13;97047.19;5090076;28;20524;-72
2021/05/24 09:50:20;;;;;;;1.55;0.40;;;19.90;99.80;;;17.95;40.73;97048.47;5095711;28;20555;-72
2021/05/24 09:52:49;;;;;;;4.05;0.47;;;20.10;99.00;;;17.86;39.88;97040.47;5078681;28;20044;-72
2021/05/24 09:55:26;;;;;;;4.53;0.40;;;20.10;98.50;;;17.49;41.40;97040.78;5062982;28;20503;-74
2021/05/24 09:57:56;;;;;;;2.65;0.40;;;20.20;98.10;;;16.80;40.38;97035.66;5078240;28;20067;-73
2021/05/24 10:00:39;;;;;;;1.42;0.50;;;20.20;96.70;;;18.20;41.14;97041.22;5075801;28;20044;-72
2021/05/24 10:03:09;;;;;;;2.13;0.40;;;20.20;98.60;;;17.12;42.74;97033.16;5076032;28;20058;-72
2021/05/24 10:05:45;;;;;;;2.03;0.50;;;19.40;98.60;;;17.26;41.78;97029.47;5082984;28;20110;-72
2021/05/24 10:08:12;;;;;;;4.32;1.15;;;19.60;98.10;;;18.82;42.37;97015.94;5075673;28;20411;-73
2021/05/24 10:10:40;;;;;;;4.05;0.50;;;19.90;99.90;;;18.24;39.92;97018.16;5079029;28;20484;-72
2021/05/24 10:13:08;;;;;;;2.75;0.57;;;20.00;98.00;;;17.63;38.96;97019.53;5084710;28;20105;-72
2021/05/24 10:15:40;;;;;;;3.03;0.40;;;19.50;96.80;;;16.84;40.78;97050.19;5077405;28;20041;-73
2021/05/24 10:18:08;;;;;;;1.90;0.50;;;19.40;97.10;;;17.06;40.31;97034.50;5080536;28;20040;-73
2021/05/24 10:20:35;;;;;;;2.75;0.60;;;19.50;97.20;;;17.67;39.68;97030.59;5085528;28;20040;-73
2021/05/24 10:23:03;;;;;;;3.53;0.80;;;19.50;97.00;;;17.88;40.53;97031.53;5079799;28;20123;-74
2021/05/24 10:25:33;;;;;;;3.15;0.50;;;19.70;97.70;;;18.33;39.79;97009.50;5082372;28;20098;-73
2021/05/24 10:28:00;;;;;;;3.33;0.60;;;20.20;97.00;;;17.31;39.57;97017.69;5060073;28;20054;-73
2021/05/24 10:30:28;;;;;;;3.28;0.50;;;20.50;95.50;;;17.94;41.10;97009.19;5070230;28;20041;-73
2021/05/24 10:33:01;;;;;;;1.65;0.40;;;19.80;97.40;;;18.08;39.18;96985.25;5078294;28;20047;-73